Rhapsody Of The Seas — C6UA2 — position and weather

sailwx.info

Track history (hours):
 
Tides and Currents Weather Stations Pressure Air Temp Water Temp Dewpoint Dewpoint Depression Visibility Wind Speed Wind Dir Waves Ship Positions

Rhapsody Of The Seas

Last reported at 2019-Apr-20 22:02 UTC. Time now 2019-Apr-25 11:47 UTC.
Position N 27°41' W 082°34'.

Type: Passenger vessel. MMSI: 311805000.

Date/timePositionNaut miles runAvg speedWind from/ knotsBaromVisibWave heightAir tempDewpointWater temp
2019-Apr-20 22:02N 27°41' W 082°34'116.3
2019-Apr-20 21:59N 27°42' W 082°33'714.0
2019-Apr-20 21:30N 27°48' W 082°29'612.7
2019-Apr-20 21:00N 27°54' W 082°26'3 5.1
2019-Apr-20 20:30N 27°56' W 082°27'1 1.5
2019-Apr-20 20:00N 27°57' W 082°27'0 0.0
2019-Apr-20 19:30N 27°57' W 082°27'0 0.0
2019-Apr-20 19:00N 27°57' W 082°27'0 0.0
2019-Apr-20 18:30N 27°57' W 082°27'0 0.0
2019-Apr-20 18:00N 27°57' W 082°27'0 0.0
2019-Apr-20 17:30N 27°57' W 082°27'0 0.0
2019-Apr-20 17:00N 27°57' W 082°27'0 0.0
2019-Apr-20 16:30N 27°57' W 082°27'0 0.0
2019-Apr-20 16:00N 27°57' W 082°27'0 0.0
2019-Apr-20 15:30N 27°57' W 082°27'0 0.0
2019-Apr-20 15:00N 27°57' W 082°27'0 0.0
2019-Apr-20 14:30N 27°57' W 082°27'0 0.0
2019-Apr-20 13:57N 27°57' W 082°27'0 0.0
2019-Apr-20 13:30N 27°57' W 082°27'0 0.0
2019-Apr-20 13:00N 27°57' W 082°27'0 0.0
2019-Apr-20 12:30N 27°57' W 082°27'0 0.0
2019-Apr-20 12:00N 27°57' W 082°27'0 0.0
2019-Apr-20 11:30N 27°57' W 082°27'0 0.0
2019-Apr-20 11:00N 27°57' W 082°27'0 0.0
2019-Apr-20 10:30N 27°57' W 082°27'0 0.0
2019-Apr-20 10:00N 27°57' W 082°27'1 2.1
2019-Apr-20 09:30N 27°56' W 082°27'3 6.4
2019-Apr-20 09:00N 27°53' W 082°26'612.5
2019-Apr-20 08:30N 27°47' W 082°30'  
2019-Apr-16 23:15N 20°28' W 087°02'313.1
2019-Apr-16 23:00N 20°29' W 086°59'1 1.0
2019-Apr-16 22:28N 20°29' W 086°59'0 0.0
2019-Apr-16 22:00N 20°29' W 086°59'0 0.0
2019-Apr-16 21:30N 20°29' W 086°59'0 0.0
2019-Apr-16 21:00N 20°29' W 086°59'0 0.0
2019-Apr-16 20:30N 20°29' W 086°59'0 0.0
2019-Apr-16 20:00N 20°29' W 086°59'0 0.0
2019-Apr-16 19:30N 20°29' W 086°59'0 0.0
2019-Apr-16 18:57N 20°29' W 086°59'0 0.0
2019-Apr-16 18:27N 20°29' W 086°59'0 0.0
2019-Apr-16 17:57N 20°29' W 086°59'0 0.1
2019-Apr-16 17:31N 20°29' W 086°59'0 0.0
2019-Apr-16 17:00N 20°29' W 086°59'0 0.0
2019-Apr-16 16:31N 20°29' W 086°59'0 0.0
2019-Apr-16 16:00N 20°29' W 086°59'0 0.0
2019-Apr-16 15:28N 20°29' W 086°59'0 0.0
2019-Apr-16 15:00N 20°29' W 086°59'0 0.0
2019-Apr-16 14:29N 20°29' W 086°59'0 0.0
2019-Apr-16 13:56N 20°29' W 086°59'0 0.0
2019-Apr-16 13:29N 20°29' W 086°59'0 0.0
2019-Apr-16 12:59N 20°29' W 086°59'0 0.0
2019-Apr-16 12:26N 20°29' W 086°59'0 0.1
2019-Apr-16 11:59N 20°29' W 086°59'0 0.4
2019-Apr-16 11:31N 20°29' W 086°59'3 5.9
2019-Apr-16 11:00N 20°32' W 086°58'4 8.4
2019-Apr-16 10:30N 20°36' W 086°55'  
2019-Apr-13 21:48N 27°41' W 082°34'514.7
2019-Apr-13 21:29N 27°45' W 082°31'612.0
2019-Apr-13 21:00N 27°49' W 082°27'611.1
2019-Apr-13 20:30N 27°55' W 082°27'2 3.3
2019-Apr-13 19:54N 27°57' W 082°27'0 0.0
2019-Apr-13 19:27N 27°57' W 082°27'0 0.0
2019-Apr-13 19:00N 27°57' W 082°27'0 0.0
2019-Apr-13 18:30N 27°57' W 082°27'0 0.0
2019-Apr-13 18:00N 27°57' W 082°27'0 0.0
2019-Apr-13 17:30N 27°57' W 082°27'0 0.0
2019-Apr-13 17:00N 27°57' W 082°27'0 0.0
2019-Apr-13 16:30N 27°57' W 082°27'0 0.0
2019-Apr-13 16:00N 27°57' W 082°27'0 0.0
2019-Apr-13 15:30N 27°57' W 082°27'0 0.0
2019-Apr-13 15:00N 27°57' W 082°27'0 0.0
2019-Apr-13 14:30N 27°57' W 082°27'0 0.0
2019-Apr-13 14:00N 27°57' W 082°27'0 0.0
2019-Apr-13 13:30N 27°57' W 082°27'0 0.0
2019-Apr-13 13:00N 27°57' W 082°27'0 0.0
2019-Apr-13 12:30N 27°57' W 082°27'0 0.0
2019-Apr-13 12:00N 27°57' W 082°27'0 0.0
2019-Apr-13 11:30N 27°57' W 082°27'0 0.0
2019-Apr-13 11:00N 27°57' W 082°27'0 0.0
2019-Apr-13 10:30N 27°57' W 082°27'1 1.7
2019-Apr-13 10:00N 27°56' W 082°27'2 4.3
2019-Apr-13 09:30N 27°54' W 082°26'612.3
2019-Apr-13 09:00N 27°48' W 082°28'713.3
2019-Apr-13 08:30N 27°43' W 082°33'44416.8
2019-Apr-12 06:00N 21°06' W 086°12'   110 / 261012.810.8 26.020.2
Track history (hours):
 
Tides and Currents Weather Stations Pressure Air Temp Water Temp Dewpoint Dewpoint Depression Visibility Wind Speed Wind Dir Waves Ship Positions

Rhapsody Of The Seas

Last reported at 2019-Apr-20 22:02 UTC. Time now 2019-Apr-25 11:47 UTC.
Position N 27°41' W 082°34'.

Type: Passenger vessel. MMSI: 311805000.

Date/timePositionNaut miles runAvg speedWind from/ knotsBaromVisibWave heightAir tempDewpointWater temp
2019-Apr-20 22:02N 27°41' W 082°34'116.3
2019-Apr-20 21:59N 27°42' W 082°33'714.0
2019-Apr-20 21:30N 27°48' W 082°29'612.7
2019-Apr-20 21:00N 27°54' W 082°26'3 5.1
2019-Apr-20 20:30N 27°56' W 082°27'1 1.5
2019-Apr-20 20:00N 27°57' W 082°27'0 0.0
2019-Apr-20 19:30N 27°57' W 082°27'0 0.0
2019-Apr-20 19:00N 27°57' W 082°27'0 0.0
2019-Apr-20 18:30N 27°57' W 082°27'0 0.0
2019-Apr-20 18:00N 27°57' W 082°27'0 0.0
2019-Apr-20 17:30N 27°57' W 082°27'0 0.0
2019-Apr-20 17:00N 27°57' W 082°27'0 0.0
2019-Apr-20 16:30N 27°57' W 082°27'0 0.0
2019-Apr-20 16:00N 27°57' W 082°27'0 0.0
2019-Apr-20 15:30N 27°57' W 082°27'0 0.0
2019-Apr-20 15:00N 27°57' W 082°27'0 0.0
2019-Apr-20 14:30N 27°57' W 082°27'0 0.0
2019-Apr-20 13:57N 27°57' W 082°27'0 0.0
2019-Apr-20 13:30N 27°57' W 082°27'0 0.0
2019-Apr-20 13:00N 27°57' W 082°27'0 0.0
2019-Apr-20 12:30N 27°57' W 082°27'0 0.0
2019-Apr-20 12:00N 27°57' W 082°27'0 0.0
2019-Apr-20 11:30N 27°57' W 082°27'0 0.0
2019-Apr-20 11:00N 27°57' W 082°27'0 0.0
2019-Apr-20 10:30N 27°57' W 082°27'0 0.0
2019-Apr-20 10:00N 27°57' W 082°27'1 2.1
2019-Apr-20 09:30N 27°56' W 082°27'3 6.4
2019-Apr-20 09:00N 27°53' W 082°26'612.5
2019-Apr-20 08:30N 27°47' W 082°30'  
2019-Apr-16 23:15N 20°28' W 087°02'313.1
2019-Apr-16 23:00N 20°29' W 086°59'1 1.0
2019-Apr-16 22:28N 20°29' W 086°59'0 0.0
2019-Apr-16 22:00N 20°29' W 086°59'0 0.0
2019-Apr-16 21:30N 20°29' W 086°59'0 0.0
2019-Apr-16 21:00N 20°29' W 086°59'0 0.0
2019-Apr-16 20:30N 20°29' W 086°59'0 0.0
2019-Apr-16 20:00N 20°29' W 086°59'0 0.0
2019-Apr-16 19:30N 20°29' W 086°59'0 0.0
2019-Apr-16 18:57N 20°29' W 086°59'0 0.0
2019-Apr-16 18:27N 20°29' W 086°59'0 0.0
2019-Apr-16 17:57N 20°29' W 086°59'0 0.1
2019-Apr-16 17:31N 20°29' W 086°59'0 0.0
2019-Apr-16 17:00N 20°29' W 086°59'0 0.0
2019-Apr-16 16:31N 20°29' W 086°59'0 0.0
2019-Apr-16 16:00N 20°29' W 086°59'0 0.0
2019-Apr-16 15:28N 20°29' W 086°59'0 0.0
2019-Apr-16 15:00N 20°29' W 086°59'0 0.0
2019-Apr-16 14:29N 20°29' W 086°59'0 0.0
2019-Apr-16 13:56N 20°29' W 086°59'0 0.0
2019-Apr-16 13:29N 20°29' W 086°59'0 0.0
2019-Apr-16 12:59N 20°29' W 086°59'0 0.0
2019-Apr-16 12:26N 20°29' W 086°59'0 0.1
2019-Apr-16 11:59N 20°29' W 086°59'0 0.4
2019-Apr-16 11:31N 20°29' W 086°59'3 5.9
2019-Apr-16 11:00N 20°32' W 086°58'4 8.4
2019-Apr-16 10:30N 20°36' W 086°55'  
2019-Apr-13 21:48N 27°41' W 082°34'514.7
2019-Apr-13 21:29N 27°45' W 082°31'612.0
2019-Apr-13 21:00N 27°49' W 082°27'611.1
2019-Apr-13 20:30N 27°55' W 082°27'2 3.3
2019-Apr-13 19:54N 27°57' W 082°27'0 0.0
2019-Apr-13 19:27N 27°57' W 082°27'0 0.0
2019-Apr-13 19:00N 27°57' W 082°27'0 0.0
2019-Apr-13 18:30N 27°57' W 082°27'0 0.0
2019-Apr-13 18:00N 27°57' W 082°27'0 0.0
2019-Apr-13 17:30N 27°57' W 082°27'0 0.0
2019-Apr-13 17:00N 27°57' W 082°27'0 0.0
2019-Apr-13 16:30N 27°57' W 082°27'0 0.0
2019-Apr-13 16:00N 27°57' W 082°27'0 0.0
2019-Apr-13 15:30N 27°57' W 082°27'0 0.0
2019-Apr-13 15:00N 27°57' W 082°27'0 0.0
2019-Apr-13 14:30N 27°57' W 082°27'0 0.0
2019-Apr-13 14:00N 27°57' W 082°27'0 0.0
2019-Apr-13 13:30N 27°57' W 082°27'0 0.0
2019-Apr-13 13:00N 27°57' W 082°27'0 0.0
2019-Apr-13 12:30N 27°57' W 082°27'0 0.0
2019-Apr-13 12:00N 27°57' W 082°27'0 0.0
2019-Apr-13 11:30N 27°57' W 082°27'0 0.0
2019-Apr-13 11:00N 27°57' W 082°27'0 0.0
2019-Apr-13 10:30N 27°57' W 082°27'1 1.7
2019-Apr-13 10:00N 27°56' W 082°27'2 4.3
2019-Apr-13 09:30N 27°54' W 082°26'612.3
2019-Apr-13 09:00N 27°48' W 082°28'713.3
2019-Apr-13 08:30N 27°43' W 082°33'44416.8
2019-Apr-12 06:00N 21°06' W 086°12'   110 / 261012.810.8 26.020.2

Dump ship's entire track history